In Rescue
 
Open Full Screen Window  High Contrast Mode
Wind Gusting 00 knots
08
May 13, 2021 10:36 AM CDT
Weather Information
Wind Direction
  190 °
Wind Speed
  08 kt (9 mph)
Wind Gust
  00 kt (0 mph)
Altimeter
30.27 in
Visibility
10 SM
Temperature
18° C
64° F
Dewpoint
-01° C
30° F
Humidity
28%
1hr Rain Fall
00.00 in.
24hr Rain Fall
00.00 in.
Sky Condition
Clear
VFR

METAR KXVG 131536Z AUTO 19008KT 10SM CLR 18/M01 A3027 RMK AO2

FAA Disclaimer: The data displayed is for advisory purposes only and is not to be used for flight planning or operations.